sensor_id;sensor_type;location;lat;lon;timestamp;pressure;altitude;pressure_sealevel;temperature;humidity
73338;BME280;61575;49.908;35.556;2023-07-29T00:00:12;98338.91;;;16.10;95.67
73338;BME280;61575;49.908;35.556;2023-07-29T00:03:15;98343.38;;;16.16;95.81
73338;BME280;61575;49.908;35.556;2023-07-29T00:06:17;98340.91;;;16.26;95.00
73338;BME280;61575;49.908;35.556;2023-07-29T00:09:19;98343.28;;;16.22;95.06
73338;BME280;61575;49.908;35.556;2023-07-29T00:12:21;98342.31;;;16.17;95.36
73338;BME280;61575;49.908;35.556;2023-07-29T00:15:23;98341.84;;;16.08;95.75
73338;BME280;61575;49.908;35.556;2023-07-29T00:18:25;98340.66;;;16.04;95.68
73338;BME280;61575;49.908;35.556;2023-07-29T00:21:27;98335.72;;;16.13;95.11
73338;BME280;61575;49.908;35.556;2023-07-29T00:24:29;98334.06;;;16.12;94.82
73338;BME280;61575;49.908;35.556;2023-07-29T00:27:31;98340.78;;;15.97;95.76
73338;BME280;61575;49.908;35.556;2023-07-29T00:30:33;98337.25;;;15.97;95.77
73338;BME280;61575;49.908;35.556;2023-07-29T00:33:35;98328.41;;;16.01;95.30
73338;BME280;61575;49.908;35.556;2023-07-29T00:36:37;98331.94;;;16.02;94.97
73338;BME280;61575;49.908;35.556;2023-07-29T00:39:40;98330.88;;;15.91;95.40
73338;BME280;61575;49.908;35.556;2023-07-29T00:42:43;98331.34;;;16.00;94.97
73338;BME280;61575;49.908;35.556;2023-07-29T00:45:45;98329.13;;;15.97;94.90
73338;BME280;61575;49.908;35.556;2023-07-29T00:48:48;98325.81;;;15.95;94.85
73338;BME280;61575;49.908;35.556;2023-07-29T00:51:50;98321.09;;;15.90;94.87
73338;BME280;61575;49.908;35.556;2023-07-29T00:54:52;98317.34;;;15.91;94.84
73338;BME280;61575;49.908;35.556;2023-07-29T00:57:54;98318.38;;;15.79;95.40
73338;BME280;61575;49.908;35.556;2023-07-29T01:00:57;98323.56;;;15.92;94.93
73338;BME280;61575;49.908;35.556;2023-07-29T01:03:58;98317.81;;;15.88;94.82
73338;BME280;61575;49.908;35.556;2023-07-29T01:07:15;98332.50;;;15.81;94.48
73338;BME280;61575;49.908;35.556;2023-07-29T01:16:47;98341.66;;;15.68;95.70
73338;BME280;61575;49.908;35.556;2023-07-29T01:20:11;98334.03;;;15.77;95.06
73338;BME280;61575;49.908;35.556;2023-07-29T01:23:15;98333.78;;;15.78;94.46
73338;BME280;61575;49.908;35.556;2023-07-29T01:26:17;98342.25;;;15.70;94.76
73338;BME280;61575;49.908;35.556;2023-07-29T01:29:20;98354.03;;;15.76;94.63
73338;BME280;61575;49.908;35.556;2023-07-29T01:32:30;98351.66;;;15.67;95.10
73338;BME280;61575;49.908;35.556;2023-07-29T01:35:42;98353.03;;;15.58;95.51
73338;BME280;61575;49.908;35.556;2023-07-29T01:38:47;98355.38;;;15.55;95.28
73338;BME280;61575;49.908;35.556;2023-07-29T01:41:50;98353.78;;;15.65;94.63
73338;BME280;61575;49.908;35.556;2023-07-29T01:44:52;98356.09;;;15.62;94.48
73338;BME280;61575;49.908;35.556;2023-07-29T01:47:54;98365.41;;;15.66;94.15
73338;BME280;61575;49.908;35.556;2023-07-29T01:50:56;98367.41;;;15.59;94.49
73338;BME280;61575;49.908;35.556;2023-07-29T01:53:58;98369.66;;;15.43;95.28
73338;BME280;61575;49.908;35.556;2023-07-29T01:57:01;98365.22;;;15.49;94.96
73338;BME280;61575;49.908;35.556;2023-07-29T02:00:04;98367.69;;;15.51;94.99
73338;BME280;61575;49.908;35.556;2023-07-29T02:03:14;98372.69;;;15.35;95.28
73338;BME280;61575;49.908;35.556;2023-07-29T02:06:16;98381.84;;;15.34;95.85
73338;BME280;61575;49.908;35.556;2023-07-29T02:09:19;98377.72;;;15.32;95.49
73338;BME280;61575;49.908;35.556;2023-07-29T02:12:21;98376.91;;;15.31;95.29
73338;BME280;61575;49.908;35.556;2023-07-29T02:15:23;98377.81;;;15.25;96.10
73338;BME280;61575;49.908;35.556;2023-07-29T02:18:25;98379.75;;;15.36;95.02
73338;BME280;61575;49.908;35.556;2023-07-29T02:21:28;98386.22;;;15.17;96.18
73338;BME280;61575;49.908;35.556;2023-07-29T02:24:29;98389.09;;;15.04;97.05
73338;BME280;61575;49.908;35.556;2023-07-29T02:27:31;98386.84;;;15.19;95.98
73338;BME280;61575;49.908;35.556;2023-07-29T02:30:34;98393.75;;;14.97;98.12
73338;BME280;61575;49.908;35.556;2023-07-29T02:33:36;98393.75;;;14.97;97.94
73338;BME280;61575;49.908;35.556;2023-07-29T02:36:38;98391.88;;;14.97;97.76
73338;BME280;61575;49.908;35.556;2023-07-29T02:39:40;98399.53;;;15.00;97.47
73338;BME280;61575;49.908;35.556;2023-07-29T02:42:43;98386.78;;;15.07;96.87
73338;BME280;61575;49.908;35.556;2023-07-29T02:45:45;98391.13;;;15.08;96.50
73338;BME280;61575;49.908;35.556;2023-07-29T02:48:47;98383.97;;;15.14;96.01
73338;BME280;61575;49.908;35.556;2023-07-29T02:51:49;98389.41;;;15.14;95.74
73338;BME280;61575;49.908;35.556;2023-07-29T02:54:51;98397.97;;;15.11;95.56
73338;BME280;61575;49.908;35.556;2023-07-29T02:57:53;98392.16;;;15.26;95.15
73338;BME280;61575;49.908;35.556;2023-07-29T03:01:05;98404.56;;;15.15;95.80
73338;BME280;61575;49.908;35.556;2023-07-29T03:04:07;98398.03;;;15.23;95.34
73338;BME280;61575;49.908;35.556;2023-07-29T03:07:09;98399.59;;;15.30;95.10
73338;BME280;61575;49.908;35.556;2023-07-29T03:10:11;98405.00;;;15.30;95.23
73338;BME280;61575;49.908;35.556;2023-07-29T03:13:15;98389.38;;;15.32;94.92
73338;BME280;61575;49.908;35.556;2023-07-29T03:16:17;98395.38;;;15.34;94.89
73338;BME280;61575;49.908;35.556;2023-07-29T03:19:29;98398.25;;;15.21;95.13
73338;BME280;61575;49.908;35.556;2023-07-29T03:22:31;98400.69;;;15.41;94.41
73338;BME280;61575;49.908;35.556;2023-07-29T03:25:33;98408.59;;;15.42;94.52
73338;BME280;61575;49.908;35.556;2023-07-29T03:28:36;98404.78;;;15.32;95.30
73338;BME280;61575;49.908;35.556;2023-07-29T03:31:39;98397.50;;;15.32;95.06
73338;BME280;61575;49.908;35.556;2023-07-29T03:34:41;98401.41;;;15.18;95.61
73338;BME280;61575;49.908;35.556;2023-07-29T03:37:43;98416.72;;;15.42;94.48
73338;BME280;61575;49.908;35.556;2023-07-29T03:40:45;98411.44;;;15.48;94.43
73338;BME280;61575;49.908;35.556;2023-07-29T03:43:48;98409.50;;;15.36;94.31
73338;BME280;61575;49.908;35.556;2023-07-29T03:46:50;98413.41;;;15.59;94.01
73338;BME280;61575;49.908;35.556;2023-07-29T03:49:52;98416.94;;;15.59;94.33
73338;BME280;61575;49.908;35.556;2023-07-29T03:52:56;98404.97;;;15.67;93.75
73338;BME280;61575;49.908;35.556;2023-07-29T03:55:58;98397.84;;;15.84;93.01
73338;BME280;61575;49.908;35.556;2023-07-29T03:59:04;98403.53;;;15.94;92.63
73338;BME280;61575;49.908;35.556;2023-07-29T04:02:07;98398.63;;;16.15;91.73
73338;BME280;61575;49.908;35.556;2023-07-29T04:05:09;98405.34;;;16.24;91.04
73338;BME280;61575;49.908;35.556;2023-07-29T04:08:11;98411.66;;;16.59;89.65
73338;BME280;61575;49.908;35.556;2023-07-29T04:11:14;98418.59;;;16.79;87.11
73338;BME280;61575;49.908;35.556;2023-07-29T04:14:16;98421.75;;;16.99;86.67
73338;BME280;61575;49.908;35.556;2023-07-29T04:17:18;98420.63;;;17.35;85.38
73338;BME280;61575;49.908;35.556;2023-07-29T04:20:20;98416.66;;;17.66;84.51
73338;BME280;61575;49.908;35.556;2023-07-29T04:23:22;98420.56;;;17.87;82.21
73338;BME280;61575;49.908;35.556;2023-07-29T04:26:24;98416.50;;;18.01;81.09
73338;BME280;61575;49.908;35.556;2023-07-29T04:29:26;98424.75;;;18.23;81.02
73338;BME280;61575;49.908;35.556;2023-07-29T04:32:28;98425.50;;;18.35;79.17
73338;BME280;61575;49.908;35.556;2023-07-29T04:35:30;98419.16;;;18.29;78.79
73338;BME280;61575;49.908;35.556;2023-07-29T04:38:33;98425.25;;;18.70;78.01
73338;BME280;61575;49.908;35.556;2023-07-29T04:41:35;98432.00;;;18.84;77.70
73338;BME280;61575;49.908;35.556;2023-07-29T04:44:37;98429.09;;;18.91;76.65
73338;BME280;61575;49.908;35.556;2023-07-29T04:47:39;98439.91;;;19.24;76.01
73338;BME280;61575;49.908;35.556;2023-07-29T04:50:41;98452.69;;;19.41;74.34
73338;BME280;61575;49.908;35.556;2023-07-29T04:53:43;98448.00;;;19.19;72.42
73338;BME280;61575;49.908;35.556;2023-07-29T04:56:45;98442.66;;;19.68;74.24
73338;BME280;61575;49.908;35.556;2023-07-29T04:59:47;98449.50;;;19.98;73.42
73338;BME280;61575;49.908;35.556;2023-07-29T05:02:49;98443.72;;;19.67;72.63
73338;BME280;61575;49.908;35.556;2023-07-29T05:05:51;98449.94;;;19.89;71.77
73338;BME280;61575;49.908;35.556;2023-07-29T05:08:57;98441.03;;;20.21;71.67
73338;BME280;61575;49.908;35.556;2023-07-29T05:11:59;98452.41;;;20.45;70.90
73338;BME280;61575;49.908;35.556;2023-07-29T05:15:01;98451.25;;;20.36;69.83
73338;BME280;61575;49.908;35.556;2023-07-29T05:18:04;98453.38;;;20.61;69.78
73338;BME280;61575;49.908;35.556;2023-07-29T05:21:06;98449.25;;;20.58;67.48
73338;BME280;61575;49.908;35.556;2023-07-29T05:24:10;98461.03;;;20.96;67.87
73338;BME280;61575;49.908;35.556;2023-07-29T05:27:12;98456.69;;;21.00;66.64
73338;BME280;61575;49.908;35.556;2023-07-29T05:30:14;98456.78;;;21.15;66.95
73338;BME280;61575;49.908;35.556;2023-07-29T05:33:16;98464.47;;;21.23;65.62
73338;BME280;61575;49.908;35.556;2023-07-29T05:36:19;98461.34;;;21.04;65.71
73338;BME280;61575;49.908;35.556;2023-07-29T05:39:21;98469.56;;;21.62;65.55
73338;BME280;61575;49.908;35.556;2023-07-29T05:42:22;98463.13;;;21.88;63.97
73338;BME280;61575;49.908;35.556;2023-07-29T05:45:24;98472.09;;;21.73;63.73
73338;BME280;61575;49.908;35.556;2023-07-29T05:48:27;98470.41;;;21.67;64.12
73338;BME280;61575;49.908;35.556;2023-07-29T05:51:29;98467.56;;;21.42;62.85
73338;BME280;61575;49.908;35.556;2023-07-29T05:54:31;98477.75;;;22.44;63.38
73338;BME280;61575;49.908;35.556;2023-07-29T05:57:33;98482.63;;;22.27;59.00
73338;BME280;61575;49.908;35.556;2023-07-29T06:00:35;98482.59;;;22.07;61.01
73338;BME280;61575;49.908;35.556;2023-07-29T06:03:37;98487.03;;;22.43;60.78
73338;BME280;61575;49.908;35.556;2023-07-29T06:06:40;98481.06;;;22.52;61.11
73338;BME280;61575;49.908;35.556;2023-07-29T06:09:42;98472.03;;;22.76;60.60
73338;BME280;61575;49.908;35.556;2023-07-29T06:12:45;98484.06;;;22.96;58.84
73338;BME280;61575;49.908;35.556;2023-07-29T06:15:47;98479.69;;;22.90;58.68
73338;BME280;61575;49.908;35.556;2023-07-29T06:18:49;98484.31;;;23.09;58.09
73338;BME280;61575;49.908;35.556;2023-07-29T06:21:51;98482.38;;;23.15;58.01
73338;BME280;61575;49.908;35.556;2023-07-29T06:24:53;98497.06;;;23.65;56.94
73338;BME280;61575;49.908;35.556;2023-07-29T06:27:55;98496.25;;;23.59;53.61
73338;BME280;61575;49.908;35.556;2023-07-29T06:30:57;98490.16;;;23.88;53.71
73338;BME280;61575;49.908;35.556;2023-07-29T06:33:59;98486.44;;;24.13;53.38
73338;BME280;61575;49.908;35.556;2023-07-29T06:37:01;98488.25;;;24.32;53.27
73338;BME280;61575;49.908;35.556;2023-07-29T06:40:04;98488.06;;;24.19;53.27
73338;BME280;61575;49.908;35.556;2023-07-29T06:43:06;98497.81;;;23.91;52.35
73338;BME280;61575;49.908;35.556;2023-07-29T06:46:08;98500.47;;;24.50;51.58
73338;BME280;61575;49.908;35.556;2023-07-29T06:49:10;98503.03;;;23.87;49.15
73338;BME280;61575;49.908;35.556;2023-07-29T06:52:12;98502.56;;;24.24;50.72
73338;BME280;61575;49.908;35.556;2023-07-29T06:55:14;98505.31;;;24.24;49.86
73338;BME280;61575;49.908;35.556;2023-07-29T06:58:16;98511.41;;;24.60;48.30
73338;BME280;61575;49.908;35.556;2023-07-29T07:01:18;98516.13;;;24.89;49.11
73338;BME280;61575;49.908;35.556;2023-07-29T07:04:20;98507.53;;;24.95;46.66
73338;BME280;61575;49.908;35.556;2023-07-29T07:07:22;98513.50;;;24.74;46.33
73338;BME280;61575;49.908;35.556;2023-07-29T07:10:24;98509.03;;;25.12;47.38
73338;BME280;61575;49.908;35.556;2023-07-29T07:13:26;98509.31;;;24.81;47.53
73338;BME280;61575;49.908;35.556;2023-07-29T07:16:28;98514.00;;;24.81;48.89
73338;BME280;61575;49.908;35.556;2023-07-29T07:19:32;98522.78;;;24.83;47.14
73338;BME280;61575;49.908;35.556;2023-07-29T07:22:33;98513.75;;;24.77;47.65
73338;BME280;61575;49.908;35.556;2023-07-29T07:25:36;98507.59;;;24.90;46.67
73338;BME280;61575;49.908;35.556;2023-07-29T07:28:37;98498.97;;;25.31;45.92
73338;BME280;61575;49.908;35.556;2023-07-29T07:31:39;98508.19;;;25.93;46.56
73338;BME280;61575;49.908;35.556;2023-07-29T07:34:41;98499.03;;;25.74;43.46
73338;BME280;61575;49.908;35.556;2023-07-29T07:37:43;98499.50;;;25.33;44.06
73338;BME280;61575;49.908;35.556;2023-07-29T07:40:55;98509.56;;;25.66;45.53
73338;BME280;61575;49.908;35.556;2023-07-29T07:43:57;98496.41;;;25.11;43.61
73338;BME280;61575;49.908;35.556;2023-07-29T07:46:59;98498.50;;;25.48;44.59
73338;BME280;61575;49.908;35.556;2023-07-29T07:50:05;98497.09;;;25.50;45.15
73338;BME280;61575;49.908;35.556;2023-07-29T07:53:07;98490.56;;;25.17;44.05
73338;BME280;61575;49.908;35.556;2023-07-29T07:56:09;98493.44;;;25.02;43.00
73338;BME280;61575;49.908;35.556;2023-07-29T07:59:11;98497.97;;;25.22;44.10
73338;BME280;61575;49.908;35.556;2023-07-29T08:02:16;98495.16;;;25.75;44.25
73338;BME280;61575;49.908;35.556;2023-07-29T08:05:18;98481.19;;;25.71;42.69
73338;BME280;61575;49.908;35.556;2023-07-29T08:08:20;98490.06;;;26.11;42.86
73338;BME280;61575;49.908;35.556;2023-07-29T08:11:23;98487.81;;;25.94;41.29
73338;BME280;61575;49.908;35.556;2023-07-29T08:14:25;98495.25;;;26.12;43.48
73338;BME280;61575;49.908;35.556;2023-07-29T08:17:28;98494.22;;;26.08;41.59
73338;BME280;61575;49.908;35.556;2023-07-29T08:20:30;98480.25;;;26.61;42.24
73338;BME280;61575;49.908;35.556;2023-07-29T08:23:33;98486.25;;;26.82;40.67
73338;BME280;61575;49.908;35.556;2023-07-29T08:26:36;98485.28;;;27.05;38.45
73338;BME280;61575;49.908;35.556;2023-07-29T08:29:38;98486.28;;;26.63;37.69
73338;BME280;61575;49.908;35.556;2023-07-29T08:32:40;98491.84;;;26.58;39.44
73338;BME280;61575;49.908;35.556;2023-07-29T08:35:42;98485.53;;;26.20;38.73
73338;BME280;61575;49.908;35.556;2023-07-29T08:38:44;98488.66;;;26.32;40.55
73338;BME280;61575;49.908;35.556;2023-07-29T08:41:50;98491.47;;;26.64;41.89
73338;BME280;61575;49.908;35.556;2023-07-29T08:44:56;98486.03;;;26.78;39.94
73338;BME280;61575;49.908;35.556;2023-07-29T08:47:58;98485.06;;;27.02;37.64
73338;BME280;61575;49.908;35.556;2023-07-29T08:51:03;98481.47;;;27.20;37.44
73338;BME280;61575;49.908;35.556;2023-07-29T08:54:06;98479.00;;;27.18;37.82
73338;BME280;61575;49.908;35.556;2023-07-29T08:57:09;98474.78;;;26.75;37.53
73338;BME280;61575;49.908;35.556;2023-07-29T09:00:12;98469.28;;;26.75;38.03
73338;BME280;61575;49.908;35.556;2023-07-29T09:03:15;98478.75;;;26.69;39.10
73338;BME280;61575;49.908;35.556;2023-07-29T09:06:18;98477.66;;;26.83;39.37
73338;BME280;61575;49.908;35.556;2023-07-29T09:09:21;98470.81;;;26.81;37.66
73338;BME280;61575;49.908;35.556;2023-07-29T09:12:23;98472.41;;;27.01;37.30
73338;BME280;61575;49.908;35.556;2023-07-29T09:15:27;98473.09;;;27.25;37.95
73338;BME280;61575;49.908;35.556;2023-07-29T09:18:30;98460.38;;;26.64;37.11
73338;BME280;61575;49.908;35.556;2023-07-29T09:21:32;98472.56;;;26.39;38.56
73338;BME280;61575;49.908;35.556;2023-07-29T09:24:34;98473.53;;;26.29;38.35
73338;BME280;61575;49.908;35.556;2023-07-29T09:27:37;98465.50;;;26.71;38.72
73338;BME280;61575;49.908;35.556;2023-07-29T09:30:45;98465.13;;;26.40;38.13
73338;BME280;61575;49.908;35.556;2023-07-29T09:33:48;98475.53;;;26.43;39.82
73338;BME280;61575;49.908;35.556;2023-07-29T09:36:50;98474.31;;;26.54;38.87
73338;BME280;61575;49.908;35.556;2023-07-29T09:39:53;98472.16;;;26.51;38.59
73338;BME280;61575;49.908;35.556;2023-07-29T09:42:55;98474.91;;;26.83;38.26
73338;BME280;61575;49.908;35.556;2023-07-29T09:46:04;98473.41;;;27.23;38.33
73338;BME280;61575;49.908;35.556;2023-07-29T09:49:07;98471.88;;;27.31;38.31
73338;BME280;61575;49.908;35.556;2023-07-29T09:52:09;98464.09;;;26.87;37.74
73338;BME280;61575;49.908;35.556;2023-07-29T09:55:12;98474.22;;;27.24;38.47
73338;BME280;61575;49.908;35.556;2023-07-29T09:58:27;98481.38;;;27.39;38.00
73338;BME280;61575;49.908;35.556;2023-07-29T10:01:29;98476.28;;;27.46;37.93
73338;BME280;61575;49.908;35.556;2023-07-29T10:04:32;98465.88;;;27.43;37.84
73338;BME280;61575;49.908;35.556;2023-07-29T10:07:38;98479.44;;;27.53;37.22
73338;BME280;61575;49.908;35.556;2023-07-29T10:10:43;98477.00;;;27.38;38.34
73338;BME280;61575;49.908;35.556;2023-07-29T10:13:45;98468.00;;;27.32;38.08
73338;BME280;61575;49.908;35.556;2023-07-29T10:17:07;98465.91;;;27.10;38.38
73338;BME280;61575;49.908;35.556;2023-07-29T10:20:10;98466.78;;;27.66;37.69
73338;BME280;61575;49.908;35.556;2023-07-29T10:23:12;98468.31;;;27.72;37.54
73338;BME280;61575;49.908;35.556;2023-07-29T10:26:19;98464.88;;;27.06;37.79
73338;BME280;61575;49.908;35.556;2023-07-29T10:29:23;98472.28;;;26.92;38.65
73338;BME280;61575;49.908;35.556;2023-07-29T10:32:25;98475.47;;;27.45;38.99
73338;BME280;61575;49.908;35.556;2023-07-29T10:35:29;98471.13;;;26.79;37.46
73338;BME280;61575;49.908;35.556;2023-07-29T10:38:31;98467.06;;;26.58;38.41
73338;BME280;61575;49.908;35.556;2023-07-29T10:42:09;98478.09;;;26.90;38.84
73338;BME280;61575;49.908;35.556;2023-07-29T10:45:20;98486.63;;;27.08;38.72
73338;BME280;61575;49.908;35.556;2023-07-29T10:51:37;98475.13;;;27.19;38.49
73338;BME280;61575;49.908;35.556;2023-07-29T10:54:47;98472.19;;;27.30;38.57
73338;BME280;61575;49.908;35.556;2023-07-29T10:57:49;98482.28;;;27.34;39.56
73338;BME280;61575;49.908;35.556;2023-07-29T11:00:51;98477.94;;;26.68;38.50
73338;BME280;61575;49.908;35.556;2023-07-29T11:10:15;98479.13;;;26.94;40.46
73338;BME280;61575;49.908;35.556;2023-07-29T11:13:17;98475.44;;;27.32;40.14
73338;BME280;61575;49.908;35.556;2023-07-29T11:16:19;98477.19;;;27.41;40.42
73338;BME280;61575;49.908;35.556;2023-07-29T11:19:22;98478.72;;;28.02;39.92
73338;BME280;61575;49.908;35.556;2023-07-29T11:22:25;98472.28;;;27.24;37.88
73338;BME280;61575;49.908;35.556;2023-07-29T11:25:29;98475.06;;;27.06;38.91
73338;BME280;61575;49.908;35.556;2023-07-29T11:28:38;98470.34;;;27.39;39.53
73338;BME280;61575;49.908;35.556;2023-07-29T11:31:40;98473.72;;;27.49;37.87
73338;BME280;61575;49.908;35.556;2023-07-29T11:34:42;98470.06;;;27.54;38.60
73338;BME280;61575;49.908;35.556;2023-07-29T11:37:46;98463.72;;;27.26;39.00
73338;BME280;61575;49.908;35.556;2023-07-29T11:40:58;98463.50;;;27.64;38.88
73338;BME280;61575;49.908;35.556;2023-07-29T11:44:00;98454.41;;;27.36;37.31
73338;BME280;61575;49.908;35.556;2023-07-29T11:47:01;98459.84;;;27.82;38.74
73338;BME280;61575;49.908;35.556;2023-07-29T11:50:06;98464.53;;;27.95;38.12
73338;BME280;61575;49.908;35.556;2023-07-29T11:53:08;98465.97;;;27.79;37.04
73338;BME280;61575;49.908;35.556;2023-07-29T11:56:10;98457.38;;;27.53;38.05
73338;BME280;61575;49.908;35.556;2023-07-29T11:59:14;98467.69;;;27.34;38.98
73338;BME280;61575;49.908;35.556;2023-07-29T12:02:19;98463.28;;;26.86;38.14
73338;BME280;61575;49.908;35.556;2023-07-29T12:05:22;98476.19;;;27.51;39.30
73338;BME280;61575;49.908;35.556;2023-07-29T12:08:26;98470.56;;;27.70;38.40
73338;BME280;61575;49.908;35.556;2023-07-29T12:11:28;98464.44;;;27.45;38.94
73338;BME280;61575;49.908;35.556;2023-07-29T12:14:31;98464.22;;;27.42;39.51
73338;BME280;61575;49.908;35.556;2023-07-29T12:17:39;98466.78;;;27.52;39.72
73338;BME280;61575;49.908;35.556;2023-07-29T12:20:41;98463.94;;;27.84;39.05
73338;BME280;61575;49.908;35.556;2023-07-29T12:23:43;98461.88;;;27.90;38.92
73338;BME280;61575;49.908;35.556;2023-07-29T12:26:46;98466.91;;;27.74;38.29
73338;BME280;61575;49.908;35.556;2023-07-29T12:29:51;98478.09;;;28.05;38.55
73338;BME280;61575;49.908;35.556;2023-07-29T12:32:54;98466.59;;;27.89;38.12
73338;BME280;61575;49.908;35.556;2023-07-29T12:35:56;98478.84;;;27.70;38.78
73338;BME280;61575;49.908;35.556;2023-07-29T12:39:00;98477.28;;;27.36;38.95
73338;BME280;61575;49.908;35.556;2023-07-29T12:42:03;98476.88;;;27.29;39.93
73338;BME280;61575;49.908;35.556;2023-07-29T12:45:06;98481.97;;;27.22;38.70
73338;BME280;61575;49.908;35.556;2023-07-29T12:48:08;98477.81;;;27.52;38.13
73338;BME280;61575;49.908;35.556;2023-07-29T12:51:11;98477.63;;;27.89;38.37
73338;BME280;61575;49.908;35.556;2023-07-29T12:54:13;98481.28;;;27.99;38.00
73338;BME280;61575;49.908;35.556;2023-07-29T12:57:15;98477.53;;;27.81;37.32
73338;BME280;61575;49.908;35.556;2023-07-29T13:00:17;98480.44;;;28.12;37.09
73338;BME280;61575;49.908;35.556;2023-07-29T13:03:19;98484.88;;;27.85;34.69
73338;BME280;61575;49.908;35.556;2023-07-29T13:06:21;98484.16;;;27.80;36.24
73338;BME280;61575;49.908;35.556;2023-07-29T13:09:23;98481.50;;;27.61;36.75
73338;BME280;61575;49.908;35.556;2023-07-29T13:12:25;98484.94;;;27.25;37.31
73338;BME280;61575;49.908;35.556;2023-07-29T13:15:27;98487.81;;;27.34;37.11
73338;BME280;61575;49.908;35.556;2023-07-29T13:18:29;98479.22;;;27.36;38.20
73338;BME280;61575;49.908;35.556;2023-07-29T13:21:31;98481.38;;;27.25;37.18
73338;BME280;61575;49.908;35.556;2023-07-29T13:24:33;98477.78;;;27.24;37.27
73338;BME280;61575;49.908;35.556;2023-07-29T13:27:35;98486.38;;;27.37;37.40
73338;BME280;61575;49.908;35.556;2023-07-29T13:30:36;98478.28;;;27.13;35.34
73338;BME280;61575;49.908;35.556;2023-07-29T13:33:38;98476.88;;;27.29;37.21
73338;BME280;61575;49.908;35.556;2023-07-29T13:36:40;98488.31;;;27.36;38.01
73338;BME280;61575;49.908;35.556;2023-07-29T13:39:42;98485.16;;;27.43;37.94
73338;BME280;61575;49.908;35.556;2023-07-29T13:42:44;98476.03;;;27.15;35.86
73338;BME280;61575;49.908;35.556;2023-07-29T13:45:46;98480.38;;;26.70;38.30
73338;BME280;61575;49.908;35.556;2023-07-29T13:48:50;98481.56;;;26.45;38.12
73338;BME280;61575;49.908;35.556;2023-07-29T13:51:52;98486.78;;;26.46;38.25
73338;BME280;61575;49.908;35.556;2023-07-29T13:54:54;98492.75;;;26.35;38.74
73338;BME280;61575;49.908;35.556;2023-07-29T13:57:55;98486.25;;;26.07;38.56
73338;BME280;61575;49.908;35.556;2023-07-29T14:00:57;98481.22;;;26.51;38.83
73338;BME280;61575;49.908;35.556;2023-07-29T14:04:01;98486.19;;;26.49;38.40
73338;BME280;61575;49.908;35.556;2023-07-29T14:07:03;98488.44;;;26.66;38.77
73338;BME280;61575;49.908;35.556;2023-07-29T14:10:05;98478.78;;;26.50;39.02
73338;BME280;61575;49.908;35.556;2023-07-29T14:13:07;98480.38;;;26.70;38.96
73338;BME280;61575;49.908;35.556;2023-07-29T14:16:09;98484.81;;;26.84;39.03
73338;BME280;61575;49.908;35.556;2023-07-29T14:19:11;98485.75;;;26.93;38.79
73338;BME280;61575;49.908;35.556;2023-07-29T14:22:13;98489.56;;;26.98;39.66
73338;BME280;61575;49.908;35.556;2023-07-29T14:25:15;98492.97;;;26.57;39.93
73338;BME280;61575;49.908;35.556;2023-07-29T14:28:17;98495.47;;;26.16;39.90
73338;BME280;61575;49.908;35.556;2023-07-29T14:31:19;98492.22;;;26.14;40.40
73338;BME280;61575;49.908;35.556;2023-07-29T14:34:21;98498.34;;;25.87;41.43
73338;BME280;61575;49.908;35.556;2023-07-29T14:37:23;98498.06;;;25.88;42.31
73338;BME280;61575;49.908;35.556;2023-07-29T14:40:25;98497.91;;;25.75;41.70
73338;BME280;61575;49.908;35.556;2023-07-29T14:43:27;98504.06;;;25.66;41.41
73338;BME280;61575;49.908;35.556;2023-07-29T14:46:29;98499.84;;;25.50;42.66
73338;BME280;61575;49.908;35.556;2023-07-29T14:49:31;98501.72;;;25.55;42.36
73338;BME280;61575;49.908;35.556;2023-07-29T14:52:32;98501.19;;;25.53;43.20
73338;BME280;61575;49.908;35.556;2023-07-29T14:55:34;98506.22;;;25.69;43.31
73338;BME280;61575;49.908;35.556;2023-07-29T14:58:36;98496.53;;;25.53;43.67
73338;BME280;61575;49.908;35.556;2023-07-29T15:01:38;98501.13;;;25.34;44.07
73338;BME280;61575;49.908;35.556;2023-07-29T15:04:40;98509.50;;;25.19;44.85
73338;BME280;61575;49.908;35.556;2023-07-29T15:07:42;98513.50;;;25.02;45.63
73338;BME280;61575;49.908;35.556;2023-07-29T15:10:47;98507.69;;;24.80;45.92
73338;BME280;61575;49.908;35.556;2023-07-29T15:13:50;98520.47;;;24.61;46.92
73338;BME280;61575;49.908;35.556;2023-07-29T15:16:51;98514.44;;;24.54;48.25
73338;BME280;61575;49.908;35.556;2023-07-29T15:19:53;98515.75;;;24.66;48.04
73338;BME280;61575;49.908;35.556;2023-07-29T15:22:55;98515.97;;;24.75;47.77
73338;BME280;61575;49.908;35.556;2023-07-29T15:25:57;98507.81;;;24.94;48.58
73338;BME280;61575;49.908;35.556;2023-07-29T15:29:00;98515.44;;;25.02;48.12
73338;BME280;61575;49.908;35.556;2023-07-29T15:32:03;98513.00;;;25.29;48.12
73338;BME280;61575;49.908;35.556;2023-07-29T15:35:05;98511.88;;;25.30;47.68
73338;BME280;61575;49.908;35.556;2023-07-29T15:38:08;98509.31;;;25.39;47.48
73338;BME280;61575;49.908;35.556;2023-07-29T15:41:10;98516.69;;;25.44;47.13
73338;BME280;61575;49.908;35.556;2023-07-29T15:44:12;98517.41;;;25.54;47.40
73338;BME280;61575;49.908;35.556;2023-07-29T15:47:14;98523.50;;;25.51;47.20
73338;BME280;61575;49.908;35.556;2023-07-29T15:50:20;98530.44;;;25.44;47.11
73338;BME280;61575;49.908;35.556;2023-07-29T15:53:22;98521.59;;;25.18;46.53
73338;BME280;61575;49.908;35.556;2023-07-29T15:56:27;98528.38;;;25.30;47.21
73338;BME280;61575;49.908;35.556;2023-07-29T15:59:29;98531.75;;;25.22;47.73
73338;BME280;61575;49.908;35.556;2023-07-29T16:02:31;98538.66;;;25.15;47.91
73338;BME280;61575;49.908;35.556;2023-07-29T16:05:32;98542.66;;;24.98;48.66
73338;BME280;61575;49.908;35.556;2023-07-29T16:08:35;98541.72;;;24.84;49.04
73338;BME280;61575;49.908;35.556;2023-07-29T16:11:37;98536.81;;;24.76;49.14